This is the latest recevied weather packets stored in our database for station/object N3WMC. If no packets are shown the sender has not sent any weather packets the latest 10 day(s).
| Time | Temp. | Humidity | Pressure | Rain* | Wind** | Luminosity | Snow |
|---|---|---|---|---|---|---|---|
| 1777932236 | 22.78° C | 46% | 1007.6 hPa | 0 mm | - | 130 W/m² | - |
| 1777931933 | 22.78° C | 44% | 1007.6 hPa | 0 mm | - | 184 W/m² | - |
| 1777931630 | 23.33° C | 44% | 1007.9 hPa | 0 mm | - | 128 W/m² | - |
| 1777931326 | 23.33° C | 43% | 1007.6 hPa | 0 mm | - | 213 W/m² | - |
| 1777931023 | 22.78° C | 44% | 1007.7 hPa | 0 mm | - | 224 W/m² | - |
| 1777930720 | 23.33° C | 42% | 1007.9 hPa | 0 mm | - | 247 W/m² | - |
| 1777930415 | 22.78° C | 44% | 1007.9 hPa | 0 mm | - | 309 W/m² | - |
| 1777930113 | 22.22° C | 44% | 1008 hPa | 0 mm | - | 131 W/m² | - |
| 1777929809 | 22.22° C | 45% | 1007.7 hPa | 0 mm | - | 317 W/m² | - |
| 1777929507 | 22.78° C | 44% | 1007.5 hPa | 0 mm | - | 76 W/m² | - |
| 1777929208 | 23.89° C | 41% | 1007.5 hPa | 0 mm | - | 150 W/m² | - |
| 1777928905 | 23.89° C | 42% | 1007.6 hPa | 0 mm | - | 369 W/m² | - |
| 1777928602 | 23.89° C | 42% | 1007.5 hPa | 0 mm | - | 367 W/m² | - |
| 1777928300 | 23.33° C | 42% | 1007.5 hPa | 0 mm | - | 391 W/m² | - |
| 1777927997 | 22.78° C | 43% | 1007.5 hPa | 0 mm | - | 404 W/m² | - |
| 1777927695 | 22.78° C | 44% | 1007.7 hPa | 0 mm | - | 314 W/m² | - |
| 1777927393 | 22.78° C | 45% | 1007.5 hPa | 0 mm | - | 111 W/m² | - |
| 1777927093 | 23.33° C | 45% | 1007.7 hPa | 0 mm | - | 123 W/m² | - |
| 1777926789 | 23.33° C | 44% | 1007.7 hPa | 0 mm | - | 491 W/m² | - |
| 1777926484 | 22.22° C | 45% | 1007.8 hPa | 0 mm | - | 506 W/m² | - |
| 1777926182 | 23.33° C | 44% | 1007.8 hPa | 0 mm | - | 83 W/m² | - |
| 1777925878 | 23.33° C | 43% | 1007.5 hPa | 0 mm | - | 469 W/m² | - |
| 1777925576 | 23.89° C | 43% | 1007.8 hPa | 0 mm | - | 544 W/m² | - |
| 1777925274 | 23.89° C | 42% | 1007.9 hPa | 0 mm | - | 490 W/m² | - |
| 1777924969 | 23.89° C | 42% | 1008 hPa | 0 mm | - | 533 W/m² | - |
* Rain latest hour (hover to see other rain measurements)
** Current wind speed in m/s (hover to see current wind gust speed)